Terminal Aerodrome Forecast
Issued by NWS Corpus Christi, TX

Home | Current Version | Previous Version | Text Only | Print | Product List | Glossary On
Versions: 1 2 3 4 5 6 7 8 9 10 11 12 13
048
FTUS44 KCRP 131729
TAFVCT
TAF
KVCT 131729Z 1318/1418 21006KT P6SM BKN250
     FM140200 VRB03KT P6SM SCT120 BKN250
     FM141200 34005KT P6SM SCT100 OVC200=

USA.gov is the U.S. government's official web portal to all federal, state and local government web resources and services.